Time;durP1;ratioP1;P1;durP2;ratioP2;P2;SDS_P1;SDS_P2;PMS_P1;PMS_P2;Temp;Humidity;BMP_temperature;BMP_pressure;BME280_temperature;BME280_humidity;BME280_pressure;Samples;Min_cycle;Max_cycle;Signal;HPM_P1;HPM_P2
2022/04/11 00:01:51;;;;;;;;;;;21.40;47.80;;;;;;5058954;28;20327;-45
2022/04/11 00:04:19;;;;;;;;;;;21.40;47.80;;;;;;5058872;28;20031;-44
2022/04/11 00:06:46;;;;;;;;;;;21.40;47.90;;;;;;5076198;28;20497;-44
2022/04/11 00:09:12;;;;;;;;;;;21.40;47.90;;;;;;5091332;28;19963;-44
2022/04/11 00:11:39;;;;;;;;;;;21.40;47.80;;;;;;5085179;28;19963;-44
2022/04/11 00:14:06;;;;;;;;;;;21.40;47.80;;;;;;5076308;28;19925;-45
2022/04/11 00:16:34;;;;;;;;;;;21.40;47.90;;;;;;5076332;28;19994;-43
2022/04/11 00:19:01;;;;;;;;;;;21.40;47.80;;;;;;5076311;28;19924;-44
2022/04/11 00:21:28;;;;;;;;;;;21.40;47.90;;;;;;5075860;28;19967;-44
2022/04/11 00:23:55;;;;;;;;;;;21.40;47.80;;;;;;5086832;28;19994;-44
2022/04/11 00:26:22;;;;;;;;;;;21.40;47.80;;;;;;5077833;28;20003;-44
2022/04/11 00:28:49;;;;;;;;;;;21.40;47.90;;;;;;5096034;28;19924;-44
2022/04/11 00:31:16;;;;;;;;;;;21.40;47.80;;;;;;5096311;28;19924;-43
2022/04/11 00:33:43;;;;;;;;;;;21.40;47.90;;;;;;5095715;28;20351;-43
2022/04/11 00:36:10;;;;;;;;;;;21.30;47.80;;;;;;5095879;28;20406;-43
2022/04/11 00:38:37;;;;;;;;;;;21.30;47.80;;;;;;5094565;28;19924;-44
2022/04/11 00:41:04;;;;;;;;;;;21.40;47.90;;;;;;5094799;28;20412;-45
2022/04/11 00:43:31;;;;;;;;;;;21.30;47.80;;;;;;5096100;28;20334;-44
2022/04/11 00:45:58;;;;;;;;;;;21.30;47.80;;;;;;5095710;28;19927;-43
2022/04/11 00:48:25;;;;;;;;;;;21.30;47.80;;;;;;5095634;28;19975;-43
2022/04/11 00:50:54;;;;;;;;;;;21.30;47.90;;;;;;5095523;28;19939;-44
2022/04/11 00:53:22;;;;;;;;;;;21.30;47.90;;;;;;5094759;28;20375;-45
2022/04/11 00:55:50;;;;;;;;;;;21.30;47.90;;;;;;5077607;28;19960;-43
2022/04/11 00:58:18;;;;;;;;;;;21.30;47.90;;;;;;5095113;28;19924;-44
2022/04/11 01:00:45;;;;;;;;;;;21.30;47.90;;;;;;5095374;28;19973;-43
2022/04/11 01:03:12;;;;;;;;;;;21.30;47.80;;;;;;5095373;28;19927;-43
2022/04/11 01:05:40;;;;;;;;;;;21.30;47.80;;;;;;5095322;28;20437;-44
2022/04/11 01:08:08;;;;;;;;;;;21.30;47.80;;;;;;5076289;28;20380;-44
2022/04/11 01:10:35;;;;;;;;;;;21.30;47.80;;;;;;5095525;28;19978;-43
2022/04/11 01:13:02;;;;;;;;;;;21.30;47.80;;;;;;5078947;28;19924;-44
2022/04/11 01:15:29;;;;;;;;;;;21.30;47.90;;;;;;5074874;28;19926;-43
2022/04/11 01:17:56;;;;;;;;;;;21.30;47.90;;;;;;5075124;28;19932;-44
2022/04/11 01:20:23;;;;;;;;;;;21.30;47.90;;;;;;5074654;28;20380;-47
2022/04/11 01:22:50;;;;;;;;;;;21.30;47.80;;;;;;5074476;28;20019;-44
2022/04/11 01:25:19;;;;;;;;;;;21.30;47.90;;;;;;5092179;28;19985;-43
2022/04/11 01:27:46;;;;;;;;;;;21.30;47.90;;;;;;5064431;28;20411;-44
2022/04/11 01:30:20;;;;;;;;;;;21.30;47.90;;;;;;5074573;28;20019;-44
2022/04/11 01:32:47;;;;;;;;;;;21.30;47.90;;;;;;5074443;28;19924;-43
2022/04/11 01:35:25;;;;;;;;;;;21.30;47.90;;;;;;5056834;28;19958;-43
2022/04/11 01:37:55;;;;;;;;;;;21.30;47.90;;;;;;5074357;28;19925;-44
2022/04/11 01:40:22;;;;;;;;;;;21.30;47.90;;;;;;5090772;28;19969;-43
2022/04/11 01:42:49;;;;;;;;;;;21.30;47.90;;;;;;5093987;28;19963;-43
2022/04/11 01:45:16;;;;;;;;;;;21.30;48.20;;;;;;5093784;28;19995;-50
2022/04/11 01:47:43;;;;;;;;;;;21.30;47.90;;;;;;5094834;28;19928;-46
2022/04/11 01:50:10;;;;;;;;;;;21.30;47.90;;;;;;5094810;28;19958;-43
2022/04/11 01:52:37;;;;;;;;;;;21.30;47.90;;;;;;5094234;28;20022;-44
2022/04/11 01:55:05;;;;;;;;;;;21.30;47.90;;;;;;5093779;28;19924;-47
2022/04/11 01:57:47;;;;;;;;;;;21.30;47.90;;;;;;5077924;28;19924;-48
2022/04/11 02:00:14;;;;;;;;;;;21.30;47.90;;;;;;5094270;28;20442;-44
2022/04/11 02:02:41;;;;;;;;;;;21.30;47.90;;;;;;5094576;28;20330;-50
2022/04/11 02:05:08;;;;;;;;;;;21.30;47.90;;;;;;5094195;28;19974;-47
2022/04/11 02:07:35;;;;;;;;;;;21.30;47.90;;;;;;5094435;28;19928;-46
2022/04/11 02:10:03;;;;;;;;;;;21.30;47.90;;;;;;5093037;28;19959;-49
2022/04/11 02:12:30;;;;;;;;;;;21.20;47.90;;;;;;5088731;28;19928;-44
2022/04/11 02:14:57;;;;;;;;;;;21.30;47.90;;;;;;5074221;28;19924;-49
2022/04/11 02:17:24;;;;;;;;;;;21.30;47.90;;;;;;5074698;28;19960;-44
2022/04/11 02:19:51;;;;;;;;;;;21.30;47.90;;;;;;5074146;28;19925;-49
2022/04/11 02:22:18;;;;;;;;;;;21.20;47.90;;;;;;5073509;28;19925;-44
2022/04/11 02:24:45;;;;;;;;;;;21.20;47.90;;;;;;5081055;28;20384;-45
2022/04/11 02:27:12;;;;;;;;;;;21.20;47.90;;;;;;5093020;28;19977;-48
2022/04/11 02:29:39;;;;;;;;;;;21.20;47.90;;;;;;5093924;28;19924;-49
2022/04/11 02:32:06;;;;;;;;;;;21.20;47.90;;;;;;5093869;28;19938;-44
2022/04/11 02:34:33;;;;;;;;;;;21.20;48.00;;;;;;5094094;28;19924;-49
2022/04/11 02:37:00;;;;;;;;;;;21.20;48.00;;;;;;5093810;28;19932;-46
2022/04/11 02:39:27;;;;;;;;;;;21.20;47.90;;;;;;5092844;28;19979;-52
2022/04/11 02:41:54;;;;;;;;;;;21.20;47.90;;;;;;5093803;28;19924;-43
2022/04/11 02:44:21;;;;;;;;;;;21.20;47.90;;;;;;5075519;28;19924;-44
2022/04/11 02:46:48;;;;;;;;;;;21.20;47.90;;;;;;5093729;28;20402;-43
2022/04/11 02:49:15;;;;;;;;;;;21.20;47.90;;;;;;5094005;28;19981;-43
2022/04/11 02:51:41;;;;;;;;;;;21.20;47.90;;;;;;5093564;28;19924;-43
2022/04/11 02:54:08;;;;;;;;;;;21.20;47.90;;;;;;5092994;28;19969;-44
2022/04/11 02:56:35;;;;;;;;;;;21.20;47.90;;;;;;5094928;28;20303;-43
2022/04/11 02:59:02;;;;;;;;;;;21.20;47.90;;;;;;5096958;28;20384;-43
2022/04/11 03:01:29;;;;;;;;;;;21.20;47.90;;;;;;5079804;28;20384;-43
2022/04/11 03:03:56;;;;;;;;;;;21.20;47.90;;;;;;5097655;28;19973;-46
2022/04/11 03:06:23;;;;;;;;;;;21.20;47.90;;;;;;5097659;28;20319;-46
2022/04/11 03:08:50;;;;;;;;;;;21.20;47.90;;;;;;5079567;28;19959;-44
2022/04/11 03:11:17;;;;;;;;;;;21.20;47.90;;;;;;5096607;28;19924;-44
2022/04/11 03:13:48;;;;;;;;;;;21.20;48.00;;;;;;5086602;28;19925;-47
2022/04/11 03:16:15;;;;;;;;;;;21.20;48.00;;;;;;5060035;28;19951;-49
2022/04/11 03:18:42;;;;;;;;;;;21.20;48.00;;;;;;5059512;28;19939;-44
2022/04/11 03:21:09;;;;;;;;;;;21.20;48.00;;;;;;5076915;28;19924;-48
2022/04/11 03:23:36;;;;;;;;;;;21.20;48.00;;;;;;5077240;28;19932;-49
2022/04/11 03:26:03;;;;;;;;;;;21.20;48.00;;;;;;5089962;28;19931;-45
2022/04/11 03:28:30;;;;;;;;;;;21.20;48.00;;;;;;5096277;28;19931;-44
2022/04/11 03:30:57;;;;;;;;;;;21.20;48.00;;;;;;5097483;28;20283;-48
2022/04/11 03:33:25;;;;;;;;;;;21.20;48.00;;;;;;5097267;28;20364;-44
2022/04/11 03:35:52;;;;;;;;;;;21.20;48.00;;;;;;5097052;28;20383;-46
2022/04/11 03:38:19;;;;;;;;;;;21.10;47.90;;;;;;5096953;28;19927;-44
2022/04/11 03:40:46;;;;;;;;;;;21.20;48.00;;;;;;5095829;28;19931;-44
2022/04/11 03:43:13;;;;;;;;;;;21.10;47.90;;;;;;5093703;28;19931;-44
2022/04/11 03:45:40;;;;;;;;;;;21.10;47.90;;;;;;5076616;28;19928;-44
2022/04/11 03:48:07;;;;;;;;;;;21.10;47.90;;;;;;5076536;28;20015;-47
2022/04/11 03:50:34;;;;;;;;;;;21.10;47.90;;;;;;5077138;28;20403;-43
2022/04/11 03:53:01;;;;;;;;;;;21.10;47.90;;;;;;5076727;28;19947;-50
2022/04/11 03:55:28;;;;;;;;;;;21.10;47.90;;;;;;5081706;28;19923;-44
2022/04/11 03:57:55;;;;;;;;;;;21.10;47.90;;;;;;5078701;28;19924;-47
2022/04/11 04:00:23;;;;;;;;;;;21.10;48.00;;;;;;5096799;28;20260;-43
2022/04/11 04:02:50;;;;;;;;;;;21.10;48.00;;;;;;5096548;28;19924;-43
2022/04/11 04:05:17;;;;;;;;;;;21.10;48.00;;;;;;5096834;28;20415;-44
2022/04/11 04:07:44;;;;;;;;;;;21.10;47.90;;;;;;5095808;28;19924;-46
2022/04/11 04:10:11;;;;;;;;;;;21.10;47.90;;;;;;5095292;28;19991;-45
2022/04/11 04:12:38;;;;;;;;;;;21.10;48.00;;;;;;5096351;28;20379;-43
2022/04/11 04:15:05;;;;;;;;;;;21.10;47.90;;;;;;5077298;28;19970;-44
2022/04/11 04:17:32;;;;;;;;;;;21.10;47.90;;;;;;5078431;28;19924;-43
2022/04/11 04:20:05;;;;;;;;;;;21.10;47.90;;;;;;5079134;28;19931;-43
2022/04/11 04:22:31;;;;;;;;;;;21.10;48.00;;;;;;5095892;28;19973;-48
2022/04/11 04:24:58;;;;;;;;;;;21.10;48.00;;;;;;5078247;28;19950;-43
2022/04/11 04:27:25;;;;;;;;;;;21.10;47.90;;;;;;5076900;28;19924;-43
2022/04/11 04:29:52;;;;;;;;;;;21.10;47.90;;;;;;5095208;28;19924;-44
2022/04/11 04:32:20;;;;;;;;;;;21.10;47.90;;;;;;5096024;28;19950;-48
2022/04/11 04:34:47;;;;;;;;;;;21.10;47.90;;;;;;5095876;28;19924;-43
2022/04/11 04:37:14;;;;;;;;;;;21.10;47.90;;;;;;5095793;28;19931;-43
2022/04/11 04:39:41;;;;;;;;;;;21.10;47.90;;;;;;5096189;28;19924;-44
2022/04/11 04:42:08;;;;;;;;;;;21.10;47.90;;;;;;5095235;28;19924;-43
2022/04/11 04:44:38;;;;;;;;;;;21.10;48.00;;;;;;5094925;28;20376;-43
2022/04/11 04:47:06;;;;;;;;;;;21.10;47.90;;;;;;5095672;28;19924;-44
2022/04/11 04:49:33;;;;;;;;;;;21.10;47.90;;;;;;5095936;28;19924;-45
2022/04/11 04:52:01;;;;;;;;;;;21.10;47.90;;;;;;5095467;28;19924;-44
2022/04/11 04:54:28;;;;;;;;;;;21.10;47.80;;;;;;5095447;28;19931;-44
2022/04/11 04:56:55;;;;;;;;;;;21.10;47.80;;;;;;5076644;28;20360;-43
2022/04/11 04:59:22;;;;;;;;;;;21.10;47.80;;;;;;5094633;28;20391;-44
2022/04/11 05:01:49;;;;;;;;;;;21.10;47.80;;;;;;5095701;28;19989;-49
2022/04/11 05:04:17;;;;;;;;;;;21.10;47.80;;;;;;5095558;28;20331;-46
2022/04/11 05:06:44;;;;;;;;;;;21.10;47.80;;;;;;5095625;28;19924;-44
2022/04/11 05:09:11;;;;;;;;;;;21.10;47.80;;;;;;5095600;28;19924;-44
2022/04/11 05:11:38;;;;;;;;;;;21.20;47.80;;;;;;5076231;28;19924;-47
2022/04/11 05:14:05;;;;;;;;;;;21.10;47.70;;;;;;5093641;28;19938;-44
2022/04/11 05:16:32;;;;;;;;;;;21.20;47.80;;;;;;5095123;28;19950;-44
2022/04/11 05:18:59;;;;;;;;;;;21.20;47.80;;;;;;5095249;28;20430;-44
2022/04/11 05:21:26;;;;;;;;;;;21.20;47.70;;;;;;5076920;28;19924;-46
2022/04/11 05:23:53;;;;;;;;;;;21.20;47.70;;;;;;5094774;28;19924;-44
2022/04/11 05:26:20;;;;;;;;;;;21.20;47.70;;;;;;5076100;28;19959;-49
2022/04/11 05:28:50;;;;;;;;;;;21.20;47.70;;;;;;5077058;28;19928;-47
2022/04/11 05:31:18;;;;;;;;;;;21.20;47.70;;;;;;5057397;28;20446;-48
2022/04/11 05:33:45;;;;;;;;;;;21.20;47.70;;;;;;5057063;28;20019;-49
2022/04/11 05:36:14;;;;;;;;;;;21.20;47.70;;;;;;5074485;28;19925;-46
2022/04/11 05:38:41;;;;;;;;;;;21.20;47.70;;;;;;5074273;28;19924;-46
2022/04/11 05:41:08;;;;;;;;;;;21.20;47.60;;;;;;5075860;28;20368;-47
2022/04/11 05:43:35;;;;;;;;;;;21.20;47.60;;;;;;5094925;28;19985;-51
2022/04/11 05:46:02;;;;;;;;;;;21.20;47.70;;;;;;5094111;28;19928;-47
2022/04/11 05:48:32;;;;;;;;;;;21.20;47.60;;;;;;5094863;28;20329;-44
2022/04/11 05:50:59;;;;;;;;;;;21.20;47.50;;;;;;5094371;28;19946;-45
2022/04/11 05:53:26;;;;;;;;;;;21.20;47.60;;;;;;5094456;28;19928;-50
2022/04/11 05:55:53;;;;;;;;;;;21.20;47.50;;;;;;5094555;28;19928;-46
2022/04/11 05:58:21;;;;;;;;;;;21.30;47.60;;;;;;5093790;28;19929;-44
2022/04/11 06:00:53;;;;;;;;;;;21.30;47.50;;;;;;5063866;28;19924;-47
2022/04/11 06:03:20;;;;;;;;;;;21.30;47.50;;;;;;5073992;28;19955;-43
2022/04/11 06:05:47;;;;;;;;;;;21.30;47.50;;;;;;5073881;28;19928;-44
2022/04/11 06:08:14;;;;;;;;;;;21.30;47.50;;;;;;5056485;28;19997;-51
2022/04/11 06:10:43;;;;;;;;;;;21.30;47.50;;;;;;5073927;28;20376;-44
2022/04/11 06:13:11;;;;;;;;;;;21.30;47.40;;;;;;5072148;28;20379;-46
2022/04/11 06:15:38;;;;;;;;;;;21.30;47.40;;;;;;5085180;28;20022;-47
2022/04/11 06:18:05;;;;;;;;;;;21.30;47.40;;;;;;5073773;28;19925;-44
2022/04/11 06:20:32;;;;;;;;;;;21.30;47.40;;;;;;5073981;28;19928;-49
2022/04/11 06:22:59;;;;;;;;;;;21.30;47.30;;;;;;5056106;28;20334;-46
2022/04/11 06:25:26;;;;;;;;;;;21.30;47.30;;;;;;5073874;28;19925;-49
2022/04/11 06:27:53;;;;;;;;;;;21.30;47.30;;;;;;5085464;28;20383;-46
2022/04/11 06:30:20;;;;;;;;;;;21.30;47.30;;;;;;5092981;28;20444;-46
2022/04/11 06:32:47;;;;;;;;;;;21.30;47.30;;;;;;5093614;28;19951;-48
2022/04/11 06:35:14;;;;;;;;;;;21.40;47.30;;;;;;5094008;28;19924;-43
2022/04/11 06:37:41;;;;;;;;;;;21.40;47.30;;;;;;5093892;28;19928;-47
2022/04/11 06:40:08;;;;;;;;;;;21.40;47.30;;;;;;5093624;28;19931;-49
2022/04/11 06:42:35;;;;;;;;;;;21.40;47.30;;;;;;5092677;28;19931;-45
2022/04/11 06:45:04;;;;;;;;;;;21.40;47.30;;;;;;5092988;28;19939;-45
2022/04/11 06:47:31;;;;;;;;;;;21.40;47.30;;;;;;5093905;28;19925;-44
2022/04/11 06:49:58;;;;;;;;;;;21.40;47.20;;;;;;5093648;28;19963;-46
2022/04/11 06:52:25;;;;;;;;;;;21.40;47.20;;;;;;5093821;28;19924;-44
2022/04/11 06:54:53;;;;;;;;;;;21.40;47.20;;;;;;5093509;28;19977;-45
2022/04/11 06:57:19;;;;;;;;;;;21.40;47.30;;;;;;5092803;28;19928;-46
2022/04/11 06:59:46;;;;;;;;;;;21.40;47.30;;;;;;5093768;28;19977;-46
2022/04/11 07:02:13;;;;;;;;;;;21.40;47.30;;;;;;5075600;28;19924;-44
2022/04/11 07:04:41;;;;;;;;;;;21.40;47.20;;;;;;5073069;28;19925;-45
2022/04/11 07:07:08;;;;;;;;;;;21.40;47.20;;;;;;5073399;28;19928;-46
2022/04/11 07:09:35;;;;;;;;;;;21.40;47.30;;;;;;5073568;28;20347;-44
2022/04/11 07:12:02;;;;;;;;;;;21.30;47.20;;;;;;5073968;28;19925;-47
2022/04/11 07:14:29;;;;;;;;;;;21.40;47.30;;;;;;5093355;28;20441;-45
2022/04/11 07:17:00;;;;;;;;;;;21.30;47.20;;;;;;5079298;28;19924;-46
2022/04/11 07:19:27;;;;;;;;;;;21.40;47.30;;;;;;5073159;28;20342;-47
2022/04/11 07:21:54;;;;;;;;;;;21.30;47.20;;;;;;5073055;28;19963;-50
2022/04/11 07:24:21;;;;;;;;;;;21.30;47.20;;;;;;5073068;28;19986;-47
2022/04/11 07:26:48;;;;;;;;;;;21.30;47.30;;;;;;5073415;28;20019;-43
2022/04/11 07:29:15;;;;;;;;;;;21.30;47.30;;;;;;5091171;28;19971;-45
2022/04/11 07:31:42;;;;;;;;;;;21.30;47.30;;;;;;5092181;28;20285;-44
2022/04/11 07:34:09;;;;;;;;;;;21.30;47.20;;;;;;5075640;28;19924;-43
2022/04/11 07:36:36;;;;;;;;;;;21.30;47.30;;;;;;5093591;28;20300;-44
2022/04/11 07:39:03;;;;;;;;;;;21.30;47.20;;;;;;5093496;28;20268;-47
2022/04/11 07:41:30;;;;;;;;;;;21.30;47.10;;;;;;5093538;28;20350;-51
2022/04/11 07:43:58;;;;;;;;;;;21.30;47.10;;;;;;5093801;28;19974;-45
2022/04/11 07:46:25;;;;;;;;;;;21.30;47.10;;;;;;5077953;28;19970;-49
2022/04/11 07:48:52;;;;;;;;;;;21.30;47.10;;;;;;5097169;28;19924;-49
2022/04/11 07:51:19;;;;;;;;;;;21.30;47.10;;;;;;5096725;28;19924;-44
2022/04/11 07:53:46;;;;;;;;;;;21.30;47.10;;;;;;5097572;28;19925;-46
2022/04/11 07:56:13;;;;;;;;;;;21.30;47.00;;;;;;5096663;28;20379;-45
2022/04/11 07:58:40;;;;;;;;;;;21.30;46.90;;;;;;5096038;28;19924;-46
2022/04/11 08:01:07;;;;;;;;;;;21.30;46.90;;;;;;5095565;28;19982;-47
2022/04/11 08:03:34;;;;;;;;;;;21.30;46.90;;;;;;5096844;28;20016;-48
2022/04/11 08:06:01;;;;;;;;;;;21.30;46.90;;;;;;5096808;28;19947;-46
2022/04/11 08:08:28;;;;;;;;;;;21.30;46.90;;;;;;5096384;28;19931;-47
2022/04/11 08:10:56;;;;;;;;;;;21.30;46.80;;;;;;5096760;28;20291;-44
2022/04/11 08:13:23;;;;;;;;;;;21.30;46.80;;;;;;5095426;28;19924;-44
2022/04/11 08:15:50;;;;;;;;;;;21.30;46.70;;;;;;5078462;28;19950;-44
2022/04/11 08:18:17;;;;;;;;;;;21.30;46.70;;;;;;5094986;28;19934;-46
2022/04/11 08:20:44;;;;;;;;;;;21.30;46.70;;;;;;5097000;28;20303;-46
2022/04/11 08:23:12;;;;;;;;;;;21.40;46.70;;;;;;5095953;28;19924;-46
2022/04/11 08:25:39;;;;;;;;;;;21.40;46.70;;;;;;5096400;28;19947;-50
2022/04/11 08:28:06;;;;;;;;;;;21.40;46.70;;;;;;5095785;28;20285;-43
2022/04/11 08:30:33;;;;;;;;;;;21.40;46.60;;;;;;5096311;28;19931;-45
2022/04/11 08:33:00;;;;;;;;;;;21.40;46.60;;;;;;5094500;28;19924;-43
2022/04/11 08:35:27;;;;;;;;;;;21.40;46.50;;;;;;5094067;28;19924;-45
2022/04/11 08:37:54;;;;;;;;;;;21.40;46.50;;;;;;5095961;28;19925;-49
2022/04/11 08:40:21;;;;;;;;;;;21.40;46.50;;;;;;5095743;28;19924;-44
2022/04/11 08:42:48;;;;;;;;;;;21.40;46.40;;;;;;5077434;28;19928;-47
2022/04/11 08:45:18;;;;;;;;;;;21.50;46.50;;;;;;5095171;28;19925;-49
2022/04/11 08:47:45;;;;;;;;;;;21.50;46.40;;;;;;5083755;28;20318;-48
2022/04/11 08:50:12;;;;;;;;;;;21.50;46.40;;;;;;5075657;28;19924;-45
2022/04/11 08:52:40;;;;;;;;;;;21.50;46.40;;;;;;5074973;28;19973;-46
2022/04/11 08:55:08;;;;;;;;;;;21.50;46.40;;;;;;5074980;28;19958;-44
2022/04/11 08:57:36;;;;;;;;;;;21.50;46.40;;;;;;5075194;28;20384;-46
2022/04/11 09:00:09;;;;;;;;;;;21.50;46.40;;;;;;5091736;28;19931;-47
2022/04/11 09:02:37;;;;;;;;;;;21.50;46.30;;;;;;5094535;28;19924;-44
2022/04/11 09:05:05;;;;;;;;;;;21.50;46.30;;;;;;5095637;28;20282;-46
2022/04/11 09:07:50;;;;;;;;;;;21.60;46.40;;;;;;5095499;28;19924;-50
2022/04/11 09:10:20;;;;;;;;;;;21.60;46.40;;;;;;5095465;28;19924;-45
2022/04/11 09:12:49;;;;;;;;;;;21.60;46.40;;;;;;5095168;28;20388;-45
2022/04/11 09:15:17;;;;;;;;;;;21.60;46.30;;;;;;5094372;28;20283;-44
2022/04/11 09:17:45;;;;;;;;;;;21.60;46.30;;;;;;5094513;28;19927;-45
2022/04/11 09:20:21;;;;;;;;;;;21.60;46.30;;;;;;5095076;28;20041;-46
2022/04/11 09:22:49;;;;;;;;;;;21.60;46.20;;;;;;5094999;28;20336;-44
2022/04/11 09:25:15;;;;;;;;;;;21.60;46.20;;;;;;5094960;28;20334;-47
2022/04/11 09:27:43;;;;;;;;;;;21.70;46.30;;;;;;5094848;28;19985;-46
2022/04/11 09:30:20;;;;;;;;;;;21.60;46.20;;;;;;5093667;28;19931;-44
2022/04/11 09:32:59;;;;;;;;;;;21.70;46.20;;;;;;5086840;28;19935;-47
2022/04/11 09:35:28;;;;;;;;;;;21.70;46.20;;;;;;5074449;28;19955;-47
2022/04/11 09:38:05;;;;;;;;;;;21.70;46.20;;;;;;5074369;28;19970;-47
2022/04/11 09:40:43;;;;;;;;;;;21.70;46.20;;;;;;5074428;28;19924;-44
2022/04/11 09:43:11;;;;;;;;;;;21.70;46.20;;;;;;5056695;28;19932;-45
2022/04/11 09:45:56;;;;;;;;;;;21.70;46.10;;;;;;5091876;28;19935;-46
2022/04/11 09:48:25;;;;;;;;;;;21.70;46.10;;;;;;5065546;28;20330;-49
2022/04/11 09:50:53;;;;;;;;;;;21.70;46.10;;;;;;5074078;28;19925;-50
2022/04/11 09:53:21;;;;;;;;;;;21.70;46.10;;;;;;5074465;28;19931;-50
2022/04/11 09:55:54;;;;;;;;;;;21.70;46.10;;;;;;5073877;28;20376;-51
2022/04/11 09:58:22;;;;;;;;;;;21.70;46.10;;;;;;5074478;28;19986;-52
2022/04/11 10:00:50;;;;;;;;;;;21.70;46.10;;;;;;5091657;28;19924;-45
2022/04/11 10:03:22;;;;;;;;;;;21.70;46.20;;;;;;5094211;28;19932;-44
2022/04/11 10:05:49;;;;;;;;;;;21.70;46.10;;;;;;5093628;28;19924;-45
2022/04/11 10:08:17;;;;;;;;;;;21.70;46.10;;;;;;5094121;28;20384;-45
2022/04/11 10:10:44;;;;;;;;;;;21.70;46.10;;;;;;5094238;28;19924;-44
2022/04/11 10:13:13;;;;;;;;;;;21.70;46.10;;;;;;5076609;28;19993;-46
2022/04/11 10:15:41;;;;;;;;;;;21.80;46.20;;;;;;5093120;28;20448;-44
2022/04/11 10:18:10;;;;;;;;;;;21.80;46.20;;;;;;5087520;28;19929;-44
2022/04/11 10:20:38;;;;;;;;;;;21.70;46.10;;;;;;5073745;28;19932;-44
2022/04/11 10:23:47;;;;;;;;;;;21.80;46.20;;;;;;5073535;28;19929;-46
2022/04/11 10:26:18;;;;;;;;;;;21.70;46.10;;;;;;5073448;28;20219;-44
2022/04/11 10:28:51;;;;;;;;;;;21.70;46.10;;;;;;5073757;28;19970;-45
2022/04/11 10:31:19;;;;;;;;;;;21.80;46.20;;;;;;5092438;28;19924;-44
2022/04/11 10:33:46;;;;;;;;;;;21.70;46.10;;;;;;5075275;28;19924;-46
2022/04/11 10:36:31;;;;;;;;;;;21.80;46.20;;;;;;5094070;28;19924;-44
2022/04/11 10:39:16;;;;;;;;;;;21.80;46.20;;;;;;5093994;28;19989;-46
2022/04/11 10:42:03;;;;;;;;;;;21.80;46.20;;;;;;5093842;28;19924;-44
2022/04/11 10:44:44;;;;;;;;;;;21.80;46.20;;;;;;5093189;28;20437;-44
2022/04/11 10:47:14;;;;;;;;;;;21.80;46.10;;;;;;5093766;28;19924;-44
2022/04/11 10:49:50;;;;;;;;;;;21.80;46.10;;;;;;5093636;28;19924;-44
2022/04/11 10:52:32;;;;;;;;;;;21.80;46.20;;;;;;5093928;28;19947;-47
2022/04/11 10:55:05;;;;;;;;;;;21.80;46.10;;;;;;5093865;28;19932;-45
2022/04/11 10:57:52;;;;;;;;;;;21.80;46.10;;;;;;5093553;28;20019;-44
2022/04/11 11:00:26;;;;;;;;;;;21.80;46.00;;;;;;5093062;28;20326;-44
2022/04/11 11:02:54;;;;;;;;;;;21.80;46.00;;;;;;5074948;28;20447;-43
2022/04/11 11:05:21;;;;;;;;;;;21.80;46.10;;;;;;5093658;28;20446;-43
2022/04/11 11:07:48;;;;;;;;;;;21.80;46.10;;;;;;5093842;28;20299;-44
2022/04/11 11:10:41;;;;;;;;;;;21.80;46.10;;;;;;5093758;28;19930;-44
2022/04/11 11:13:27;;;;;;;;;;;21.80;46.10;;;;;;5093754;28;19928;-44
2022/04/11 11:15:54;;;;;;;;;;;21.80;46.10;;;;;;5092800;28;20073;-43
2022/04/11 11:18:22;;;;;;;;;;;21.80;46.10;;;;;;5095533;28;19928;-43
2022/04/11 11:20:51;;;;;;;;;;;21.80;46.10;;;;;;5097630;28;19928;-44
2022/04/11 11:23:23;;;;;;;;;;;21.80;46.00;;;;;;5097305;28;19928;-44
2022/04/11 11:25:50;;;;;;;;;;;21.80;46.00;;;;;;5097588;28;19924;-43
2022/04/11 11:28:17;;;;;;;;;;;21.80;46.10;;;;;;5097205;28;20368;-45
2022/04/11 11:30:44;;;;;;;;;;;21.80;46.00;;;;;;5096554;28;19974;-44
2022/04/11 11:33:13;;;;;;;;;;;21.80;46.00;;;;;;5097079;28;19925;-43
2022/04/11 11:35:47;;;;;;;;;;;21.80;46.00;;;;;;5096758;28;20353;-44
2022/04/11 11:38:14;;;;;;;;;;;21.80;46.00;;;;;;5097245;28;20344;-44
2022/04/11 11:40:51;;;;;;;;;;;21.80;46.00;;;;;;5097333;28;19928;-46
2022/04/11 11:43:20;;;;;;;;;;;21.80;46.00;;;;;;5097524;28;20333;-44
2022/04/11 11:45:48;;;;;;;;;;;21.80;46.00;;;;;;5096035;28;20379;-43
2022/04/11 11:48:22;;;;;;;;;;;21.80;46.00;;;;;;5096867;28;20044;-44
2022/04/11 11:50:50;;;;;;;;;;;21.80;46.00;;;;;;5059090;28;20253;-45
2022/04/11 11:53:18;;;;;;;;;;;21.80;46.00;;;;;;5076626;28;19924;-43
2022/04/11 11:55:55;;;;;;;;;;;21.80;46.00;;;;;;5076613;28;19950;-44
2022/04/11 11:58:22;;;;;;;;;;;21.80;46.00;;;;;;5076388;28;19978;-44
2022/04/11 12:00:49;;;;;;;;;;;21.80;46.00;;;;;;5082784;28;19931;-43
2022/04/11 12:06:03;;;;;;;;;;;21.80;45.90;;;;;;5096696;28;20077;-44
2022/04/11 12:08:32;;;;;;;;;;;21.80;45.90;;;;;;5096917;28;19931;-44
2022/04/11 12:10:59;;;;;;;;;;;21.80;46.50;;;;;;5096751;28;20344;-44
2022/04/11 12:13:30;;;;;;;;;;;21.80;45.90;;;;;;5096417;28;19924;-47
2022/04/11 12:16:17;;;;;;;;;;;21.80;45.80;;;;;;5095672;28;19924;-45
2022/04/11 12:18:53;;;;;;;;;;;21.80;45.80;;;;;;5095559;28;20355;-44
2022/04/11 12:21:30;;;;;;;;;;;21.80;46.40;;;;;;5096170;28;19969;-47
2022/04/11 12:23:58;;;;;;;;;;;21.80;46.40;;;;;;5096263;28;19924;-47
2022/04/11 12:26:30;;;;;;;;;;;21.80;45.80;;;;;;5096738;28;20329;-47
2022/04/11 12:28:57;;;;;;;;;;;21.80;45.80;;;;;;5095388;28;20023;-46
2022/04/11 12:31:24;;;;;;;;;;;21.80;45.80;;;;;;5095189;28;19977;-46
2022/04/11 12:33:52;;;;;;;;;;;21.80;45.80;;;;;;5096041;28;19931;-48
2022/04/11 12:36:22;;;;;;;;;;;21.80;45.70;;;;;;5095748;28;19928;-45
2022/04/11 12:38:51;;;;;;;;;;;21.80;45.70;;;;;;5096038;28;19971;-45
2022/04/11 12:41:27;;;;;;;;;;;21.80;45.80;;;;;;5096208;28;20116;-45
2022/04/11 12:44:00;;;;;;;;;;;21.80;45.80;;;;;;5095827;28;19924;-48
2022/04/11 12:46:27;;;;;;;;;;;21.80;45.70;;;;;;5095111;28;19931;-48
2022/04/11 12:48:58;;;;;;;;;;;21.80;45.80;;;;;;5079038;28;20246;-45
2022/04/11 12:51:31;;;;;;;;;;;21.80;45.70;;;;;;5076072;28;19924;-45
2022/04/11 12:54:05;;;;;;;;;;;21.80;45.70;;;;;;5075455;28;20376;-47
2022/04/11 12:56:34;;;;;;;;;;;21.80;45.70;;;;;;5075250;28;19932;-45
2022/04/11 12:59:01;;;;;;;;;;;21.80;45.70;;;;;;5075274;28;19924;-46
2022/04/11 13:01:46;;;;;;;;;;;21.80;45.70;;;;;;5063738;28;19938;-47
2022/04/11 13:04:13;;;;;;;;;;;21.80;45.60;;;;;;5095437;28;19956;-45
2022/04/11 13:06:40;;;;;;;;;;;21.80;45.70;;;;;;5094593;28;19924;-44
2022/04/11 13:09:07;;;;;;;;;;;21.80;45.70;;;;;;5095276;28;20371;-51
2022/04/11 13:11:44;;;;;;;;;;;21.80;45.60;;;;;;5095274;28;19924;-44
2022/04/11 13:14:30;;;;;;;;;;;21.80;45.60;;;;;;5095219;28;19976;-50
2022/04/11 13:19:43;;;;;;;;;;;21.80;45.60;;;;;;5093676;28;20026;-45
2022/04/11 13:22:10;;;;;;;;;;;21.80;45.60;;;;;;5095002;28;19977;-43
2022/04/11 13:24:37;;;;;;;;;;;21.80;45.60;;;;;;5095087;28;19924;-50
2022/04/11 13:27:04;;;;;;;;;;;21.80;45.60;;;;;;5094952;28;19973;-46
2022/04/11 13:29:31;;;;;;;;;;;21.80;45.60;;;;;;5094973;28;19924;-47
2022/04/11 13:31:59;;;;;;;;;;;21.80;45.50;;;;;;5094360;28;19985;-48
2022/04/11 13:34:26;;;;;;;;;;;21.80;45.60;;;;;;5095142;28;19924;-50
2022/04/11 13:36:53;;;;;;;;;;;21.80;45.50;;;;;;5094263;28;20350;-48
2022/04/11 13:39:40;;;;;;;;;;;21.80;45.50;;;;;;5094665;28;20014;-46
2022/04/11 13:42:07;;;;;;;;;;;21.80;45.50;;;;;;5094305;28;19924;-44
2022/04/11 13:44:34;;;;;;;;;;;21.80;45.50;;;;;;5094941;28;19975;-44
2022/04/11 13:47:01;;;;;;;;;;;21.80;45.50;;;;;;5093797;28;20375;-44
2022/04/11 13:49:28;;;;;;;;;;;21.80;45.40;;;;;;5094767;28;19925;-44
2022/04/11 13:51:55;;;;;;;;;;;21.80;45.40;;;;;;5093754;28;20053;-45
2022/04/11 13:54:24;;;;;;;;;;;21.80;45.40;;;;;;5094459;28;19938;-44
2022/04/11 13:56:51;;;;;;;;;;;21.80;46.00;;;;;;5094661;28;19924;-48
2022/04/11 13:59:25;;;;;;;;;;;21.80;45.50;;;;;;5094409;28;19924;-46
2022/04/11 14:01:53;;;;;;;;;;;21.80;45.50;;;;;;5093304;28;19972;-44
2022/04/11 14:04:22;;;;;;;;;;;21.80;45.50;;;;;;5094208;28;19924;-47
2022/04/11 14:06:49;;;;;;;;;;;21.80;45.50;;;;;;5078327;28;19928;-44
2022/04/11 14:09:17;;;;;;;;;;;21.80;45.50;;;;;;5073870;28;19924;-44
2022/04/11 14:12:04;;;;;;;;;;;21.80;45.40;;;;;;5074228;28;19924;-44
2022/04/11 14:14:31;;;;;;;;;;;21.80;45.50;;;;;;5073898;28;20372;-47
2022/04/11 14:16:58;;;;;;;;;;;21.80;45.50;;;;;;5060319;28;19924;-44
2022/04/11 14:19:25;;;;;;;;;;;21.80;45.50;;;;;;5094077;28;20421;-44
2022/04/11 14:21:56;;;;;;;;;;;21.80;45.50;;;;;;5075361;28;19970;-44
2022/04/11 14:24:23;;;;;;;;;;;21.80;45.50;;;;;;5072373;28;19925;-45
2022/04/11 14:26:50;;;;;;;;;;;21.80;45.50;;;;;;5073712;28;19970;-44
2022/04/11 14:29:17;;;;;;;;;;;21.80;45.50;;;;;;5074036;28;20343;-46
2022/04/11 14:31:44;;;;;;;;;;;21.80;45.50;;;;;;5072843;28;19977;-43